Highland Plt, Maine
Current Conditions -  °F | °C
As of 12:15 PM on Thursday 27 Nov 2014 (Local Time) from KWVL Reporting Station
Overcast Overcast  
Wind Chill: 24°   Ceiling: 4900
Heat Index: 32°   Visibility: 10mi
Dew Point: 19°   Wind: 10mph
Humidity: 60%   Direction: 320°NW
Pressure: 29.88"   Gusts: NA
Location:  45.0341°N, 70.0886°W
Report Text: KWVL 271715Z 32009KT 10SM FEW025 OVC049 00/M07 A2988 RMK AO1
Loading
Personal Weather Stations






























Interactive Weather Map New forecast layout! Learn more

10-Day Weather Forecast

Advertisements
Track Severe Weather on mobile